Notice de pointage des heures de vols sur les Robin

Rédigé par Admin - 28 mars 2015

Suite au dernier CD, le Président a envoyé la notice jointe (Pointage HDV)

Concernant le changement du mode de pointage des heures de vols sur les avions Robin. Cette procédure est applicable immédiatement.

Bons vols

Classé dans : Actualités - Mots clés : aucun - aucun commentaire

F-HZAF est opérationnel

Rédigé par Admin - 16 mars 2015

F-HZAF, DR400-180Regent - quadriplace de voyage - vient en remplacement de F-BVMP vendu par son propriétaire l'ANEG.

Pour voler à bord de ce nouvel avion, vous devez contacter un instructeur pour un "lâcher" préalable.

Bons vols à bord de ce bel avion récent.


Classé dans : Actualités - Mots clés : aucun - aucun commentaire

Lavage des avions

Rédigé par Admin - 23 février 2015

Il faut prévoir de laver les avions tout au bout du parking pour éviter d’entasser la boue devant les hangars. 

Classé dans : Actualités - Mots clés : aucun - aucun commentaire

Rencontres ULM

Rédigé par Admin - 23 février 2015

Championnat régional d’ULM les 8, 9 et 10 mai prochains

Les épreuves auront lieu le samedi et le dimanche matin. Nous déposerons un NOTAM indiquant que la piste sera réservée aux avions basés mais néanmoins ouverte aux autres à condition d’avoir donné un préavis afin de ne pas fermer le terrain.

Bien sûr, tout cela dépendra de la météo.

Classé dans : Actualités - Mots clés : aucun - aucun commentaire

Fil Rss des articles de cette catégorie

Webcam :

Nuit aéronautique

16 Aug 2018

Heure locale,
pour LFDL uniquement.

Lever du soleil aéronautique :06:29
Lever du soleil :06:59
Coucher du soleil :21:07
Coucher du soleil aéronautique :21:37

Metar

LFBI :
2018/08/16 12:00
LFBI 161200Z AUTO VRB04KT CAVOK 30/11 Q1015 NOSIG
LFBI :
Poitiers, France (LFBI) 46-35N 000-19E 120M
Aug 16, 2018 - 08:00 AM EDT / 2018.08.16 1200 UTC
Wind: Variable at 5 MPH (4 KT):0
Visibility: greater than 7 mile(s):0
Temperature: 86 F (30 C)
Dew Point: 51 F (11 C)
Relative Humidity: 30%
Pressure (altimeter): 29.97 in. Hg (1015 hPa)
ob: LFBI 161200Z AUTO VRB04KT CAVOK 30/11 Q1015 NOSIG
cycle: 12

Afficher le metar d'une autre station :
Code OACI :

Aéroclub de Loudun


Bellevue
86200 Loudun


Contacter Michel Richez (président)

  • Mail:michel.richez@free.fr
  • Tel:09-50-38-02-06
  • Mobile:06-52-73-09-01



agrandir le plan

Newsletter

Mon e-mail :